createdAt,value
2023-10-18T00:01:56.233Z,100.00
2023-10-18T00:04:25.075Z,100.00
2023-10-18T00:06:55.511Z,100.00
2023-10-18T00:09:41.399Z,100.00
2023-10-18T00:12:08.400Z,100.00
2023-10-18T00:14:36.383Z,100.00
2023-10-18T00:17:02.913Z,100.00
2023-10-18T00:19:29.618Z,100.00
2023-10-18T00:21:56.319Z,100.00
2023-10-18T00:24:22.812Z,100.00
2023-10-18T00:26:49.267Z,100.00
2023-10-18T00:29:15.706Z,100.00
2023-10-18T00:31:42.252Z,100.00
2023-10-18T00:34:09.248Z,100.00
2023-10-18T00:36:35.835Z,100.00
2023-10-18T00:39:15.721Z,100.00
2023-10-18T00:41:45.508Z,100.00
2023-10-18T00:44:13.258Z,100.00
2023-10-18T00:46:40.742Z,100.00
2023-10-18T00:49:15.522Z,100.00
2023-10-18T00:51:44.842Z,100.00
2023-10-18T00:54:15.636Z,100.00
2023-10-18T00:56:47.012Z,100.00
2023-10-18T00:59:22.652Z,100.00
2023-10-18T01:02:01.436Z,100.00
2023-10-18T01:04:30.307Z,100.00
2023-10-18T01:06:59.268Z,100.00
2023-10-18T01:09:27.551Z,100.00
2023-10-18T01:11:54.365Z,100.00
2023-10-18T01:14:25.710Z,100.00
2023-10-18T01:16:54.859Z,100.00
2023-10-18T01:19:22.693Z,100.00
2023-10-18T01:21:52.733Z,100.00
2023-10-18T01:24:20.007Z,100.00
2023-10-18T01:26:46.628Z,100.00
2023-10-18T01:29:13.083Z,100.00
2023-10-18T01:31:50.261Z,100.00
2023-10-18T01:34:17.893Z,100.00
2023-10-18T01:36:44.428Z,100.00
2023-10-18T01:39:20.289Z,100.00
2023-10-18T01:41:56.684Z,100.00
2023-10-18T01:44:31.657Z,100.00
2023-10-18T01:47:08.835Z,100.00
2023-10-18T01:49:45.350Z,100.00
2023-10-18T01:52:13.571Z,100.00
2023-10-18T01:54:40.480Z,100.00
2023-10-18T01:57:13.097Z,100.00
2023-10-18T01:59:40.827Z,100.00
2023-10-18T02:02:11.405Z,100.00
2023-10-18T02:04:51.945Z,100.00
2023-10-18T02:07:20.531Z,100.00
2023-10-18T02:09:51.381Z,100.00
2023-10-18T02:12:21.226Z,100.00
2023-10-18T02:14:49.455Z,100.00
2023-10-18T02:17:19.454Z,100.00
2023-10-18T02:19:46.261Z,100.00
2023-10-18T02:22:17.398Z,100.00
2023-10-18T02:24:44.841Z,100.00
2023-10-18T02:27:17.084Z,100.00
2023-10-18T02:29:45.410Z,100.00
2023-10-18T02:32:32.253Z,100.00
2023-10-18T02:34:59.164Z,100.00
2023-10-18T02:37:26.171Z,100.00
2023-10-18T02:40:04.319Z,100.00
2023-10-18T02:42:34.070Z,100.00
2023-10-18T02:45:01.593Z,100.00
2023-10-18T02:47:31.014Z,100.00
2023-10-18T02:49:57.824Z,100.00
2023-10-18T02:52:27.812Z,100.00
2023-10-18T02:54:55.448Z,100.00
2023-10-18T02:57:22.079Z,100.00
2023-10-18T02:59:51.410Z,100.00
2023-10-18T03:02:23.609Z,100.00
2023-10-18T03:04:54.155Z,100.00
2023-10-18T03:07:22.981Z,100.00
2023-10-18T03:09:50.894Z,100.00
2023-10-18T03:12:19.145Z,100.00
2023-10-18T03:14:55.810Z,100.00
2023-10-18T03:17:24.735Z,100.00
2023-10-18T03:19:55.368Z,100.00
2023-10-18T03:22:27.674Z,100.00
2023-10-18T03:24:57.523Z,100.00
2023-10-18T03:27:26.677Z,100.00
2023-10-18T03:30:11.866Z,100.00
2023-10-18T03:32:39.388Z,100.00
2023-10-18T03:35:10.542Z,100.00
2023-10-18T03:37:40.320Z,100.00
2023-10-18T03:40:27.873Z,100.00
2023-10-18T03:42:55.380Z,100.00
2023-10-18T03:45:44.834Z,100.00
2023-10-18T03:48:24.583Z,100.00
2023-10-18T03:50:53.208Z,100.00
2023-10-18T03:53:21.128Z,100.00
2023-10-18T03:55:50.930Z,100.00
2023-10-18T03:58:23.878Z,100.00
2023-10-18T04:00:55.915Z,100.00
2023-10-18T04:03:22.883Z,100.00
2023-10-18T04:05:53.509Z,100.00
2023-10-18T04:08:20.062Z,100.00
2023-10-18T04:10:59.640Z,100.00
2023-10-18T04:13:29.182Z,100.00
2023-10-18T04:16:00.928Z,100.00
2023-10-18T04:18:30.950Z,100.00
2023-10-18T04:21:00.597Z,100.00
2023-10-18T04:23:27.617Z,100.00
2023-10-18T04:26:05.929Z,100.00
2023-10-18T04:28:39.646Z,100.00
2023-10-18T04:31:10.274Z,100.00
2023-10-18T04:33:37.758Z,100.00
2023-10-18T04:36:16.258Z,100.00
2023-10-18T04:38:45.943Z,100.00
2023-10-18T04:41:29.686Z,100.00
2023-10-18T04:44:06.720Z,100.00
2023-10-18T04:46:37.266Z,100.00
2023-10-18T04:49:11.517Z,100.00
2023-10-18T04:51:40.865Z,100.00
2023-10-18T04:54:19.144Z,100.00
2023-10-18T04:56:47.699Z,100.00
2023-10-18T04:59:19.078Z,100.00
2023-10-18T05:01:55.244Z,100.00
2023-10-18T05:04:35.501Z,100.00
2023-10-18T05:07:17.249Z,100.00
2023-10-18T05:09:45.718Z,100.00
2023-10-18T05:12:29.122Z,100.00
2023-10-18T05:14:59.380Z,100.00
2023-10-18T05:17:46.171Z,100.00
2023-10-18T05:20:18.526Z,100.00
2023-10-18T05:22:53.877Z,100.00
2023-10-18T05:25:20.624Z,100.00
2023-10-18T05:28:01.375Z,100.00
2023-10-18T05:30:49.923Z,100.00
2023-10-18T05:33:38.258Z,100.00
2023-10-18T05:36:20.970Z,100.00
2023-10-18T05:38:47.465Z,100.00
2023-10-18T05:41:20.981Z,100.00
2023-10-18T05:43:47.470Z,100.00
2023-10-18T05:46:14.053Z,100.00
2023-10-18T05:48:43.176Z,100.00
2023-10-18T05:54:00.601Z,100.00
2023-10-18T05:56:36.271Z,100.00
2023-10-18T05:59:22.571Z,100.00
2023-10-18T06:01:51.089Z,100.00
2023-10-18T06:04:26.910Z,100.00
2023-10-18T06:07:06.077Z,100.00
2023-10-18T06:09:45.819Z,100.00
2023-10-18T06:12:16.625Z,100.00
2023-10-18T06:14:46.541Z,100.00
2023-10-18T06:17:13.664Z,100.00
2023-10-18T06:19:42.333Z,100.00
2023-10-18T06:22:27.504Z,100.00
2023-10-18T06:24:54.033Z,100.00
2023-10-18T06:27:20.525Z,100.00
2023-10-18T06:29:50.551Z,100.00
2023-10-18T06:32:17.290Z,100.00
2023-10-18T06:34:44.943Z,100.00
2023-10-18T06:37:23.882Z,100.00
2023-10-18T06:39:59.915Z,100.00
2023-10-18T06:42:28.229Z,100.00
2023-10-18T06:44:56.531Z,100.00
2023-10-18T06:47:32.028Z,100.00
2023-10-18T06:50:17.928Z,100.00
2023-10-18T06:52:54.596Z,100.00
2023-10-18T06:55:39.878Z,100.00
2023-10-18T06:58:13.504Z,100.00
2023-10-18T07:00:44.785Z,100.00
2023-10-18T07:03:26.025Z,100.00
2023-10-18T07:05:55.775Z,100.00
2023-10-18T07:08:34.137Z,100.00
2023-10-18T07:11:18.505Z,100.00
2023-10-18T07:13:48.500Z,100.00
2023-10-18T07:16:34.810Z,100.00
2023-10-18T07:19:05.824Z,100.00
2023-10-18T07:21:33.730Z,100.00
2023-10-18T07:24:13.035Z,100.00
2023-10-18T07:26:40.907Z,100.00
2023-10-18T07:29:10.566Z,100.00
2023-10-18T07:31:40.627Z,100.00
2023-10-18T07:34:10.674Z,100.00
2023-10-18T07:36:40.840Z,100.00
2023-10-18T07:39:07.622Z,100.00
2023-10-18T07:41:37.625Z,100.00
2023-10-18T07:44:07.989Z,100.00
2023-10-18T07:46:35.982Z,100.00
2023-10-18T07:49:06.076Z,100.00
2023-10-18T07:51:33.063Z,100.00
2023-10-18T07:54:01.103Z,100.00
2023-10-18T07:56:33.739Z,100.00
2023-10-18T07:59:19.408Z,100.00
2023-10-18T08:01:52.536Z,100.00
2023-10-18T08:04:21.487Z,100.00
2023-10-18T08:06:50.244Z,100.00
2023-10-18T08:09:21.596Z,100.00
2023-10-18T08:11:51.913Z,100.00
2023-10-18T08:14:20.166Z,100.00
2023-10-18T08:16:53.898Z,100.00
2023-10-18T08:19:24.287Z,100.00
2023-10-18T08:22:21.511Z,100.00
2023-10-18T08:24:53.127Z,100.00
2023-10-18T08:27:19.807Z,100.00
2023-10-18T08:29:56.817Z,100.00
2023-10-18T08:32:31.103Z,100.00
2023-10-18T08:35:07.673Z,100.00
2023-10-18T08:37:34.252Z,100.00
2023-10-18T08:40:00.792Z,100.00
2023-10-18T08:42:33.880Z,100.00
2023-10-18T08:45:05.216Z,100.00
2023-10-18T08:50:03.176Z,100.00
2023-10-18T08:52:36.218Z,100.00
2023-10-18T08:55:20.947Z,100.00
2023-10-18T08:57:48.458Z,100.00
2023-10-18T09:00:25.101Z,100.00
2023-10-18T09:02:55.291Z,100.00
2023-10-18T09:05:26.312Z,100.00
2023-10-18T09:07:54.282Z,100.00
2023-10-18T09:10:54.376Z,100.00
2023-10-18T09:13:22.416Z,100.00
2023-10-18T09:16:01.039Z,100.00
2023-10-18T09:18:32.943Z,100.00
2023-10-18T09:21:09.298Z,100.00
2023-10-18T09:23:36.273Z,100.00
2023-10-18T09:26:11.703Z,100.00
2023-10-18T09:28:39.129Z,100.00
2023-10-18T09:31:12.382Z,100.00
2023-10-18T09:33:41.810Z,100.00
2023-10-18T09:36:22.122Z,100.00
2023-10-18T09:38:50.317Z,100.00
2023-10-18T09:41:18.153Z,100.00
2023-10-18T09:43:48.366Z,100.00
2023-10-18T09:46:16.822Z,100.00
2023-10-18T09:48:45.238Z,100.00
2023-10-18T09:51:16.565Z,100.00
2023-10-18T09:53:49.405Z,100.00
2023-10-18T09:56:19.701Z,100.00
2023-10-18T09:58:52.952Z,100.00
2023-10-18T10:01:52.093Z,100.00
2023-10-18T10:04:19.358Z,100.00
2023-10-18T10:06:53.990Z,100.00
2023-10-18T10:09:30.506Z,100.00
2023-10-18T10:11:59.312Z,100.00
2023-10-18T10:14:30.509Z,100.00
2023-10-18T10:17:09.016Z,100.00
2023-10-18T10:19:44.047Z,100.00
2023-10-18T10:22:13.451Z,100.00
2023-10-18T10:24:52.722Z,100.00
2023-10-18T10:27:33.619Z,100.00
2023-10-18T10:30:21.838Z,100.00
2023-10-18T10:33:13.196Z,100.00
2023-10-18T10:35:46.513Z,100.00
2023-10-18T10:38:22.794Z,100.00
2023-10-18T10:40:50.290Z,100.00
2023-10-18T10:43:19.742Z,100.00
2023-10-18T10:45:47.639Z,100.00
2023-10-18T10:48:26.397Z,100.00
2023-10-18T10:51:20.882Z,100.00
2023-10-18T10:53:59.090Z,100.00
2023-10-18T10:56:28.288Z,100.00
2023-10-18T10:59:04.792Z,100.00
2023-10-18T11:01:41.365Z,100.00
2023-10-18T11:04:16.391Z,100.00
2023-10-18T11:06:47.755Z,100.00
2023-10-18T11:09:16.808Z,98.78
2023-10-18T11:11:44.887Z,98.64
2023-10-18T11:14:18.545Z,98.03
2023-10-18T11:16:55.090Z,97.72
2023-10-18T11:19:29.724Z,97.95
2023-10-18T11:21:59.593Z,95.13
2023-10-18T11:24:29.035Z,95.93
2023-10-18T11:26:58.673Z,97.42
2023-10-18T11:29:28.341Z,94.88
2023-10-18T11:32:00.021Z,94.56
2023-10-18T11:34:26.942Z,95.75
2023-10-18T11:36:56.199Z,96.84
2023-10-18T11:39:24.596Z,95.72
2023-10-18T11:41:54.395Z,91.68
2023-10-18T11:44:35.276Z,92.39
2023-10-18T11:47:20.571Z,91.78
2023-10-18T11:49:54.236Z,88.20
2023-10-18T11:52:26.716Z,88.74
2023-10-18T11:55:10.078Z,88.64
2023-10-18T11:57:41.109Z,87.33
2023-10-18T12:00:25.979Z,88.81
2023-10-18T12:03:07.018Z,86.49
2023-10-18T12:05:34.029Z,85.28
2023-10-18T12:08:07.092Z,85.71
2023-10-18T12:10:37.035Z,86.49
2023-10-18T12:13:08.136Z,83.93
2023-10-18T12:15:35.785Z,84.88
2023-10-18T12:18:05.706Z,84.50
2023-10-18T12:20:36.508Z,84.64
2023-10-18T12:23:19.951Z,84.84
2023-10-18T12:25:47.358Z,84.99
2023-10-18T12:28:14.644Z,85.89
2023-10-18T12:30:45.597Z,86.87
2023-10-18T12:33:44.682Z,87.48
2023-10-18T12:36:23.103Z,88.61
2023-10-18T12:38:50.417Z,87.17
2023-10-18T12:41:16.877Z,85.65
2023-10-18T12:43:46.985Z,85.04
2023-10-18T12:46:22.895Z,85.35
2023-10-18T12:48:57.799Z,87.12
2023-10-18T12:51:32.186Z,86.86
2023-10-18T12:53:59.110Z,87.97
2023-10-18T12:56:28.421Z,88.20
2023-10-18T12:59:17.416Z,87.75
2023-10-18T13:01:47.361Z,86.34
2023-10-18T13:04:20.055Z,86.81
2023-10-18T13:06:47.469Z,86.69
2023-10-18T13:09:15.819Z,87.40
2023-10-18T13:11:52.937Z,87.03
2023-10-18T13:14:35.297Z,87.59
2023-10-18T13:17:12.005Z,87.59
2023-10-18T13:19:45.305Z,87.42
2023-10-18T13:22:21.113Z,86.72
2023-10-18T13:24:47.636Z,88.32
2023-10-18T13:27:18.592Z,88.05
2023-10-18T13:30:01.665Z,87.51
2023-10-18T13:32:29.974Z,86.91
2023-10-18T13:34:56.728Z,87.29
2023-10-18T13:37:25.119Z,84.90
2023-10-18T13:39:53.167Z,84.59
2023-10-18T13:42:20.551Z,85.31
2023-10-18T13:44:47.506Z,84.55
2023-10-18T13:47:14.364Z,83.38
2023-10-18T13:49:41.767Z,83.54
2023-10-18T13:52:08.745Z,85.14
2023-10-18T13:54:35.743Z,84.31
2023-10-18T13:57:02.415Z,84.65
2023-10-18T13:59:30.734Z,85.46
2023-10-18T14:01:57.907Z,85.08
2023-10-18T14:04:29.987Z,85.16
2023-10-18T14:06:59.327Z,86.02
2023-10-18T14:09:26.513Z,85.79
2023-10-18T14:11:53.401Z,86.78
2023-10-18T14:14:21.010Z,85.76
2023-10-18T14:16:47.881Z,85.15
2023-10-18T14:19:19.817Z,86.13
2023-10-18T14:21:49.408Z,86.83
2023-10-18T14:24:18.376Z,86.88
2023-10-18T14:26:45.222Z,87.89
2023-10-18T14:29:13.084Z,87.42
2023-10-18T14:31:40.410Z,88.59
2023-10-18T14:34:07.058Z,89.23
2023-10-18T14:36:34.160Z,88.69
2023-10-18T14:39:01.504Z,88.20
2023-10-18T14:41:33.144Z,88.94
2023-10-18T14:44:01.159Z,88.82
2023-10-18T14:46:31.043Z,89.31
2023-10-18T14:49:00.105Z,88.54
2023-10-18T14:51:27.721Z,89.56
2023-10-18T14:53:54.329Z,89.84
2023-10-18T14:56:23.539Z,89.37
2023-10-18T14:58:52.992Z,89.54
2023-10-18T15:01:19.864Z,90.16
2023-10-18T15:03:48.054Z,90.73
2023-10-18T15:06:18.368Z,91.92
2023-10-18T15:08:45.987Z,92.62
2023-10-18T15:11:20.217Z,93.52
2023-10-18T15:13:49.439Z,94.62
2023-10-18T15:16:17.990Z,94.14
2023-10-18T15:18:47.855Z,94.24
2023-10-18T15:21:16.368Z,94.63
2023-10-18T15:23:44.939Z,95.57
2023-10-18T15:26:11.862Z,95.56
2023-10-18T15:28:40.459Z,96.15
2023-10-18T15:31:15.292Z,97.21
2023-10-18T15:33:44.118Z,97.88
2023-10-18T15:36:19.428Z,96.84
2023-10-18T15:38:49.882Z,97.77
2023-10-18T15:41:23.785Z,98.33
2023-10-18T15:43:56.911Z,97.70
2023-10-18T15:46:34.234Z,96.96
2023-10-18T15:49:01.310Z,97.29
2023-10-18T15:51:29.755Z,98.09
2023-10-18T15:54:00.345Z,97.58
2023-10-18T15:56:28.956Z,97.20
2023-10-18T15:58:56.769Z,97.64
2023-10-18T16:01:24.374Z,98.40
2023-10-18T16:03:51.904Z,99.54
2023-10-18T16:06:19.999Z,100.00
2023-10-18T16:08:48.152Z,100.00
2023-10-18T16:11:15.726Z,100.00
2023-10-18T16:13:42.429Z,100.00
2023-10-18T16:16:12.437Z,100.00
2023-10-18T16:18:42.006Z,100.00
2023-10-18T16:21:11.090Z,100.00
2023-10-18T16:23:42.728Z,100.00
2023-10-18T16:26:10.890Z,100.00
2023-10-18T16:28:38.782Z,100.00
2023-10-18T16:31:06.714Z,100.00
2023-10-18T16:33:33.724Z,100.00
2023-10-18T16:36:02.603Z,100.00
2023-10-18T16:38:30.876Z,100.00
2023-10-18T16:41:01.990Z,100.00
2023-10-18T16:43:28.480Z,100.00
2023-10-18T16:45:54.947Z,100.00
2023-10-18T16:48:21.427Z,100.00
2023-10-18T16:50:49.651Z,100.00
2023-10-18T16:53:16.289Z,100.00
2023-10-18T16:55:42.708Z,100.00
2023-10-18T16:58:09.436Z,100.00
2023-10-18T17:00:35.856Z,100.00
2023-10-18T17:03:02.422Z,100.00
2023-10-18T17:05:30.177Z,100.00
2023-10-18T17:07:57.449Z,100.00
2023-10-18T17:10:23.874Z,100.00
2023-10-18T17:12:51.251Z,100.00
2023-10-18T17:15:17.824Z,100.00
2023-10-18T17:17:44.609Z,100.00
2023-10-18T17:20:17.688Z,100.00
2023-10-18T17:22:47.874Z,100.00
2023-10-18T17:25:18.112Z,100.00
2023-10-18T17:27:46.710Z,100.00
2023-10-18T17:30:14.532Z,100.00
2023-10-18T17:32:42.281Z,100.00
2023-10-18T17:35:13.251Z,100.00
2023-10-18T17:37:47.982Z,100.00
2023-10-18T17:40:17.950Z,100.00
2023-10-18T17:42:46.055Z,100.00
2023-10-18T17:45:15.317Z,100.00
2023-10-18T17:47:43.810Z,100.00
2023-10-18T17:50:12.790Z,100.00
2023-10-18T17:52:47.140Z,100.00
2023-10-18T17:55:15.961Z,100.00
2023-10-18T17:57:46.383Z,100.00
2023-10-18T18:00:26.785Z,100.00
2023-10-18T18:03:02.157Z,100.00
2023-10-18T18:05:34.031Z,100.00
2023-10-18T18:08:01.974Z,100.00
2023-10-18T18:10:29.411Z,100.00
2023-10-18T18:12:58.892Z,100.00
2023-10-18T18:15:25.927Z,100.00
2023-10-18T18:17:52.805Z,100.00
2023-10-18T18:20:21.795Z,100.00
2023-10-18T18:22:50.305Z,100.00
2023-10-18T18:25:17.049Z,100.00
2023-10-18T18:27:44.728Z,100.00
2023-10-18T18:30:12.502Z,100.00
2023-10-18T18:32:40.485Z,100.00
2023-10-18T18:35:10.838Z,100.00
2023-10-18T18:37:40.877Z,100.00
2023-10-18T18:40:10.769Z,100.00
2023-10-18T18:42:38.758Z,100.00
2023-10-18T18:45:10.035Z,100.00
2023-10-18T18:47:41.214Z,100.00
2023-10-18T18:50:10.318Z,100.00
2023-10-18T18:52:41.711Z,100.00
2023-10-18T18:55:15.251Z,100.00
2023-10-18T18:57:44.623Z,100.00
2023-10-18T19:00:21.319Z,100.00
2023-10-18T19:02:57.104Z,100.00
2023-10-18T19:05:24.782Z,100.00
2023-10-18T19:07:53.053Z,100.00
2023-10-18T19:10:21.088Z,100.00
2023-10-18T19:12:49.535Z,100.00
2023-10-18T19:15:24.856Z,100.00
2023-10-18T19:17:51.882Z,100.00
2023-10-18T19:20:19.712Z,100.00
2023-10-18T19:22:48.446Z,100.00
2023-10-18T19:25:17.679Z,100.00
2023-10-18T19:27:44.819Z,100.00
2023-10-18T19:30:12.833Z,100.00
2023-10-18T19:32:39.800Z,100.00
2023-10-18T19:35:10.947Z,100.00
2023-10-18T19:37:38.510Z,100.00
2023-10-18T19:40:08.505Z,100.00
2023-10-18T19:42:35.648Z,100.00
2023-10-18T19:45:02.215Z,100.00
2023-10-18T19:47:29.191Z,100.00
2023-10-18T19:49:55.847Z,100.00
2023-10-18T19:52:23.156Z,100.00
2023-10-18T19:54:49.788Z,100.00
2023-10-18T19:57:16.403Z,100.00
2023-10-18T19:59:42.849Z,100.00
2023-10-18T20:02:11.480Z,100.00
2023-10-18T20:04:38.136Z,100.00
2023-10-18T20:07:04.601Z,100.00
2023-10-18T20:09:34.491Z,100.00
2023-10-18T20:12:01.471Z,100.00
2023-10-18T20:14:28.513Z,100.00
2023-10-18T20:16:54.992Z,100.00
2023-10-18T20:19:21.514Z,100.00
2023-10-18T20:21:48.056Z,100.00
2023-10-18T20:24:14.558Z,100.00
2023-10-18T20:26:41.054Z,100.00
2023-10-18T20:29:09.505Z,100.00
2023-10-18T20:31:36.083Z,100.00
2023-10-18T20:34:02.583Z,100.00
2023-10-18T20:36:29.087Z,100.00
2023-10-18T20:38:55.751Z,100.00
2023-10-18T20:41:22.199Z,100.00
2023-10-18T20:43:48.671Z,100.00
2023-10-18T20:46:17.801Z,100.00
2023-10-18T20:48:46.610Z,100.00
2023-10-18T20:51:13.962Z,100.00
2023-10-18T20:53:41.859Z,100.00
2023-10-18T20:56:09.236Z,100.00
2023-10-18T20:58:36.309Z,100.00
2023-10-18T21:01:09.234Z,100.00
2023-10-18T21:03:36.009Z,100.00
2023-10-18T21:06:14.581Z,100.00
2023-10-18T21:08:43.165Z,100.00
2023-10-18T21:11:14.026Z,100.00
2023-10-18T21:13:41.702Z,100.00
2023-10-18T21:16:10.179Z,100.00
2023-10-18T21:18:37.040Z,100.00
2023-10-18T21:21:06.516Z,100.00
2023-10-18T21:23:34.851Z,100.00
2023-10-18T21:26:04.867Z,100.00
2023-10-18T21:28:32.029Z,100.00
2023-10-18T21:31:05.867Z,100.00
2023-10-18T21:33:33.406Z,100.00
2023-10-18T21:36:11.926Z,100.00
2023-10-18T21:38:40.630Z,100.00
2023-10-18T21:41:12.322Z,100.00
2023-10-18T21:43:38.818Z,100.00
2023-10-18T21:46:06.477Z,100.00
2023-10-18T21:48:37.350Z,100.00
2023-10-18T21:51:08.473Z,100.00
2023-10-18T21:53:34.917Z,100.00
2023-10-18T21:56:02.089Z,100.00
2023-10-18T21:58:33.565Z,100.00
2023-10-18T22:01:06.972Z,100.00
2023-10-18T22:03:36.149Z,100.00
2023-10-18T22:06:04.284Z,100.00
2023-10-18T22:08:31.978Z,100.00
2023-10-18T22:11:02.193Z,100.00
2023-10-18T22:13:32.382Z,100.00
2023-10-18T22:16:03.290Z,100.00
2023-10-18T22:18:38.680Z,100.00
2023-10-18T22:21:07.299Z,100.00
2023-10-18T22:23:37.917Z,100.00
2023-10-18T22:26:14.928Z,100.00
2023-10-18T22:28:45.121Z,100.00
2023-10-18T22:31:11.766Z,100.00
2023-10-18T22:33:38.630Z,100.00
2023-10-18T22:36:09.886Z,100.00
2023-10-18T22:38:42.473Z,100.00
2023-10-18T22:41:11.987Z,100.00
2023-10-18T22:43:42.500Z,100.00
2023-10-18T22:46:17.637Z,100.00
2023-10-18T22:48:45.567Z,100.00
2023-10-18T22:51:13.150Z,100.00
2023-10-18T22:53:46.386Z,100.00
2023-10-18T22:56:16.946Z,100.00
2023-10-18T22:58:45.961Z,100.00
2023-10-18T23:01:17.456Z,100.00
2023-10-18T23:03:44.419Z,100.00
2023-10-18T23:06:11.803Z,100.00
2023-10-18T23:08:38.332Z,100.00
2023-10-18T23:11:20.047Z,100.00
2023-10-18T23:13:49.420Z,100.00
2023-10-18T23:16:37.647Z,100.00
2023-10-18T23:19:11.361Z,100.00
2023-10-18T23:21:46.847Z,100.00
2023-10-18T23:24:19.175Z,100.00
2023-10-18T23:27:04.352Z,100.00
2023-10-18T23:29:39.601Z,100.00
2023-10-18T23:32:27.646Z,100.00
2023-10-18T23:34:55.191Z,100.00
2023-10-18T23:37:29.566Z,100.00
2023-10-18T23:39:56.429Z,100.00
2023-10-18T23:42:34.762Z,100.00
2023-10-18T23:45:13.805Z,100.00
2023-10-18T23:47:40.718Z,100.00
2023-10-18T23:50:30.298Z,100.00
2023-10-18T23:53:19.543Z,100.00
2023-10-18T23:55:55.480Z,100.00
2023-10-18T23:58:30.435Z,100.00
